sensor_id;sensor_type;location;lat;lon;timestamp;temperature;humidity
67196;DHT22;54122;53.538;49.366;2023-02-26T00:01:52;1.90;94.60
67196;DHT22;54122;53.538;49.366;2023-02-26T00:04:20;1.90;94.80
67196;DHT22;54122;53.538;49.366;2023-02-26T00:06:46;1.90;94.90
67196;DHT22;54122;53.538;49.366;2023-02-26T00:09:18;1.90;95.10
67196;DHT22;54122;53.538;49.366;2023-02-26T00:11:45;1.90;95.10
67196;DHT22;54122;53.538;49.366;2023-02-26T00:14:14;2.00;95.30
67196;DHT22;54122;53.538;49.366;2023-02-26T00:16:41;2.00;95.50
67196;DHT22;54122;53.538;49.366;2023-02-26T00:19:09;2.00;95.60
67196;DHT22;54122;53.538;49.366;2023-02-26T00:21:36;2.00;95.90
67196;DHT22;54122;53.538;49.366;2023-02-26T00:24:03;2.00;96.00
67196;DHT22;54122;53.538;49.366;2023-02-26T00:26:32;2.00;96.10
67196;DHT22;54122;53.538;49.366;2023-02-26T00:28:59;2.00;96.10
67196;DHT22;54122;53.538;49.366;2023-02-26T00:31:26;2.00;96.30
67196;DHT22;54122;53.538;49.366;2023-02-26T00:33:54;2.00;96.50
67196;DHT22;54122;53.538;49.366;2023-02-26T00:36:41;2.00;96.50
67196;DHT22;54122;53.538;49.366;2023-02-26T00:39:30;2.00;96.50
67196;DHT22;54122;53.538;49.366;2023-02-26T00:41:58;2.00;96.70
67196;DHT22;54122;53.538;49.366;2023-02-26T00:44:25;2.00;96.70
67196;DHT22;54122;53.538;49.366;2023-02-26T00:52:35;2.00;96.80
67196;DHT22;54122;53.538;49.366;2023-02-26T00:55:04;2.10;96.90
67196;DHT22;54122;53.538;49.366;2023-02-26T00:57:30;2.00;96.90
67196;DHT22;54122;53.538;49.366;2023-02-26T00:59:56;2.00;97.00
67196;DHT22;54122;53.538;49.366;2023-02-26T01:02:23;2.00;96.90
67196;DHT22;54122;53.538;49.366;2023-02-26T01:04:49;2.00;96.90
67196;DHT22;54122;53.538;49.366;2023-02-26T01:07:20;2.10;96.90
67196;DHT22;54122;53.538;49.366;2023-02-26T01:09:48;2.10;97.00
67196;DHT22;54122;53.538;49.366;2023-02-26T01:12:14;2.10;97.00
67196;DHT22;54122;53.538;49.366;2023-02-26T01:14:43;2.10;96.90
67196;DHT22;54122;53.538;49.366;2023-02-26T01:17:33;2.10;96.90
67196;DHT22;54122;53.538;49.366;2023-02-26T01:20:04;2.10;96.80
67196;DHT22;54122;53.538;49.366;2023-02-26T01:22:36;2.10;97.30
67196;DHT22;54122;53.538;49.366;2023-02-26T01:25:11;2.10;96.80
67196;DHT22;54122;53.538;49.366;2023-02-26T01:27:37;2.10;96.80
67196;DHT22;54122;53.538;49.366;2023-02-26T01:30:05;2.10;96.80
67196;DHT22;54122;53.538;49.366;2023-02-26T01:32:42;2.10;96.90
67196;DHT22;54122;53.538;49.366;2023-02-26T01:37:55;2.00;96.80
67196;DHT22;54122;53.538;49.366;2023-02-26T01:43:18;2.00;96.90
67196;DHT22;54122;53.538;49.366;2023-02-26T01:46:00;1.90;97.00
67196;DHT22;54122;53.538;49.366;2023-02-26T01:48:50;2.00;97.10
67196;DHT22;54122;53.538;49.366;2023-02-26T01:51:36;1.90;97.10
67196;DHT22;54122;53.538;49.366;2023-02-26T01:54:04;1.90;97.30
67196;DHT22;54122;53.538;49.366;2023-02-26T01:56:30;1.90;97.40
67196;DHT22;54122;53.538;49.366;2023-02-26T01:58:57;1.80;97.50
67196;DHT22;54122;53.538;49.366;2023-02-26T02:01:23;1.80;97.60
67196;DHT22;54122;53.538;49.366;2023-02-26T02:03:50;1.80;97.70
67196;DHT22;54122;53.538;49.366;2023-02-26T02:06:21;1.80;97.80
67196;DHT22;54122;53.538;49.366;2023-02-26T02:08:50;1.80;97.90
67196;DHT22;54122;53.538;49.366;2023-02-26T02:11:16;1.80;97.90
67196;DHT22;54122;53.538;49.366;2023-02-26T02:13:58;1.80;97.80
67196;DHT22;54122;53.538;49.366;2023-02-26T02:19:23;1.90;97.60
67196;DHT22;54122;53.538;49.366;2023-02-26T02:24:57;1.80;97.50
67196;DHT22;54122;53.538;49.366;2023-02-26T02:32:55;1.80;97.40
67196;DHT22;54122;53.538;49.366;2023-02-26T02:35:37;1.80;97.40
67196;DHT22;54122;53.538;49.366;2023-02-26T02:38:16;1.80;97.40
67196;DHT22;54122;53.538;49.366;2023-02-26T02:40:48;1.80;97.50
67196;DHT22;54122;53.538;49.366;2023-02-26T02:43:17;1.80;97.50
67196;DHT22;54122;53.538;49.366;2023-02-26T02:50:50;1.80;97.40
67196;DHT22;54122;53.538;49.366;2023-02-26T02:53:39;1.80;97.50
67196;DHT22;54122;53.538;49.366;2023-02-26T02:56:17;1.80;97.50
67196;DHT22;54122;53.538;49.366;2023-02-26T02:58:52;1.70;97.60
67196;DHT22;54122;53.538;49.366;2023-02-26T03:01:23;1.70;97.50
67196;DHT22;54122;53.538;49.366;2023-02-26T03:04:04;1.70;97.60
67196;DHT22;54122;53.538;49.366;2023-02-26T03:06:31;1.70;97.50
67196;DHT22;54122;53.538;49.366;2023-02-26T03:08:58;1.60;97.50
67196;DHT22;54122;53.538;49.366;2023-02-26T03:11:25;1.60;97.60
67196;DHT22;54122;53.538;49.366;2023-02-26T03:13:52;1.60;97.50
67196;DHT22;54122;53.538;49.366;2023-02-26T03:16:25;1.60;97.50
67196;DHT22;54122;53.538;49.366;2023-02-26T03:19:21;1.50;97.40
67196;DHT22;54122;53.538;49.366;2023-02-26T03:24:31;1.50;97.20
67196;DHT22;54122;53.538;49.366;2023-02-26T03:29:54;1.50;97.20
67196;DHT22;54122;53.538;49.366;2023-02-26T03:32:39;1.50;97.30
67196;DHT22;54122;53.538;49.366;2023-02-26T03:35:59;1.50;97.20
67196;DHT22;54122;53.538;49.366;2023-02-26T03:38:10;1.50;97.20
67196;DHT22;54122;53.538;49.366;2023-02-26T03:40:52;1.50;97.20
67196;DHT22;54122;53.538;49.366;2023-02-26T03:43:46;1.50;97.20
67196;DHT22;54122;53.538;49.366;2023-02-26T03:46:20;1.50;97.30
67196;DHT22;54122;53.538;49.366;2023-02-26T03:48:49;1.50;97.40
67196;DHT22;54122;53.538;49.366;2023-02-26T03:51:17;1.50;97.30
67196;DHT22;54122;53.538;49.366;2023-02-26T03:54:09;1.60;97.20
67196;DHT22;54122;53.538;49.366;2023-02-26T03:56:42;1.60;97.10
67196;DHT22;54122;53.538;49.366;2023-02-26T03:59:10;1.60;97.10
67196;DHT22;54122;53.538;49.366;2023-02-26T04:01:56;1.60;97.20
67196;DHT22;54122;53.538;49.366;2023-02-26T04:06:55;1.60;97.10
67196;DHT22;54122;53.538;49.366;2023-02-26T04:09:22;1.60;97.10
67196;DHT22;54122;53.538;49.366;2023-02-26T04:11:49;1.60;97.10
67196;DHT22;54122;53.538;49.366;2023-02-26T04:14:16;1.60;97.00
67196;DHT22;54122;53.538;49.366;2023-02-26T04:16:43;1.60;96.80
67196;DHT22;54122;53.538;49.366;2023-02-26T04:19:09;1.60;96.80
67196;DHT22;54122;53.538;49.366;2023-02-26T04:21:36;1.60;96.80
67196;DHT22;54122;53.538;49.366;2023-02-26T04:24:02;1.60;96.80
67196;DHT22;54122;53.538;49.366;2023-02-26T04:26:28;1.70;96.80
67196;DHT22;54122;53.538;49.366;2023-02-26T04:28:54;1.70;96.60
67196;DHT22;54122;53.538;49.366;2023-02-26T04:31:20;1.70;96.60
67196;DHT22;54122;53.538;49.366;2023-02-26T04:33:47;1.70;96.40
67196;DHT22;54122;53.538;49.366;2023-02-26T04:36:13;1.70;96.30
67196;DHT22;54122;53.538;49.366;2023-02-26T04:38:39;1.70;96.20
67196;DHT22;54122;53.538;49.366;2023-02-26T04:41:06;1.70;96.20
67196;DHT22;54122;53.538;49.366;2023-02-26T04:43:32;1.80;96.10
67196;DHT22;54122;53.538;49.366;2023-02-26T04:45:58;1.80;95.90
67196;DHT22;54122;53.538;49.366;2023-02-26T04:48:25;1.80;95.90
67196;DHT22;54122;53.538;49.366;2023-02-26T04:50:51;1.80;95.90
67196;DHT22;54122;53.538;49.366;2023-02-26T04:53:17;1.80;95.90
67196;DHT22;54122;53.538;49.366;2023-02-26T04:55:47;1.80;95.80
67196;DHT22;54122;53.538;49.366;2023-02-26T04:58:13;1.90;95.70
67196;DHT22;54122;53.538;49.366;2023-02-26T05:00:39;1.90;95.60
67196;DHT22;54122;53.538;49.366;2023-02-26T05:03:06;2.00;95.50
67196;DHT22;54122;53.538;49.366;2023-02-26T05:05:33;2.00;95.30
67196;DHT22;54122;53.538;49.366;2023-02-26T05:08:00;2.00;95.20
67196;DHT22;54122;53.538;49.366;2023-02-26T05:10:27;2.10;95.10
67196;DHT22;54122;53.538;49.366;2023-02-26T05:12:53;2.10;95.00
67196;DHT22;54122;53.538;49.366;2023-02-26T05:15:19;2.20;94.80
67196;DHT22;54122;53.538;49.366;2023-02-26T05:17:45;2.30;94.70
67196;DHT22;54122;53.538;49.366;2023-02-26T05:20:12;2.40;94.40
67196;DHT22;54122;53.538;49.366;2023-02-26T05:22:40;2.40;94.20
67196;DHT22;54122;53.538;49.366;2023-02-26T05:25:07;2.50;93.90
67196;DHT22;54122;53.538;49.366;2023-02-26T05:27:33;2.60;93.60
67196;DHT22;54122;53.538;49.366;2023-02-26T05:29:59;2.70;93.40
67196;DHT22;54122;53.538;49.366;2023-02-26T05:32:26;2.80;93.20
67196;DHT22;54122;53.538;49.366;2023-02-26T05:34:52;2.90;92.70
67196;DHT22;54122;53.538;49.366;2023-02-26T05:37:18;2.90;92.60
67196;DHT22;54122;53.538;49.366;2023-02-26T05:39:45;2.90;92.60
67196;DHT22;54122;53.538;49.366;2023-02-26T05:42:11;3.00;92.40
67196;DHT22;54122;53.538;49.366;2023-02-26T05:44:37;3.00;92.50
67196;DHT22;54122;53.538;49.366;2023-02-26T05:47:03;2.90;92.40
67196;DHT22;54122;53.538;49.366;2023-02-26T05:49:29;2.90;92.50
67196;DHT22;54122;53.538;49.366;2023-02-26T05:51:56;2.80;92.60
67196;DHT22;54122;53.538;49.366;2023-02-26T05:54:22;2.70;92.90
67196;DHT22;54122;53.538;49.366;2023-02-26T05:56:48;2.60;93.20
67196;DHT22;54122;53.538;49.366;2023-02-26T05:59:15;2.50;93.50
67196;DHT22;54122;53.538;49.366;2023-02-26T06:01:42;2.50;93.80
67196;DHT22;54122;53.538;49.366;2023-02-26T06:04:08;2.50;94.00
67196;DHT22;54122;53.538;49.366;2023-02-26T06:06:35;2.40;94.10
67196;DHT22;54122;53.538;49.366;2023-02-26T06:09:02;2.50;94.20
67196;DHT22;54122;53.538;49.366;2023-02-26T06:11:29;2.50;94.20
67196;DHT22;54122;53.538;49.366;2023-02-26T06:13:56;2.50;94.20
67196;DHT22;54122;53.538;49.366;2023-02-26T06:16:22;2.50;94.30
67196;DHT22;54122;53.538;49.366;2023-02-26T06:18:48;2.50;94.30
67196;DHT22;54122;53.538;49.366;2023-02-26T06:21:16;2.60;94.30
67196;DHT22;54122;53.538;49.366;2023-02-26T06:23:42;2.70;94.30
67196;DHT22;54122;53.538;49.366;2023-02-26T06:26:08;2.80;93.90
67196;DHT22;54122;53.538;49.366;2023-02-26T06:28:34;2.80;93.80
67196;DHT22;54122;53.538;49.366;2023-02-26T06:31:01;2.90;93.70
67196;DHT22;54122;53.538;49.366;2023-02-26T06:33:27;3.00;93.50
67196;DHT22;54122;53.538;49.366;2023-02-26T06:35:53;3.00;93.40
67196;DHT22;54122;53.538;49.366;2023-02-26T06:38:20;3.20;93.10
67196;DHT22;54122;53.538;49.366;2023-02-26T06:40:47;3.20;92.70
67196;DHT22;54122;53.538;49.366;2023-02-26T06:43:13;3.20;92.60
67196;DHT22;54122;53.538;49.366;2023-02-26T06:45:39;3.10;92.60
67196;DHT22;54122;53.538;49.366;2023-02-26T06:48:05;3.20;92.70
67196;DHT22;54122;53.538;49.366;2023-02-26T06:50:31;3.20;92.70
67196;DHT22;54122;53.538;49.366;2023-02-26T06:52:58;3.20;93.00
67196;DHT22;54122;53.538;49.366;2023-02-26T06:55:24;3.30;92.90
67196;DHT22;54122;53.538;49.366;2023-02-26T06:57:54;3.40;92.60
67196;DHT22;54122;53.538;49.366;2023-02-26T07:00:21;3.60;92.60
67196;DHT22;54122;53.538;49.366;2023-02-26T07:02:48;3.70;92.20
67196;DHT22;54122;53.538;49.366;2023-02-26T07:05:15;3.70;91.80
67196;DHT22;54122;53.538;49.366;2023-02-26T07:07:41;3.70;91.70
67196;DHT22;54122;53.538;49.366;2023-02-26T07:10:10;3.60;91.60
67196;DHT22;54122;53.538;49.366;2023-02-26T07:12:37;3.60;91.70
67196;DHT22;54122;53.538;49.366;2023-02-26T07:15:05;3.60;91.80
67196;DHT22;54122;53.538;49.366;2023-02-26T07:17:31;3.70;91.70
67196;DHT22;54122;53.538;49.366;2023-02-26T07:19:57;3.80;91.50
67196;DHT22;54122;53.538;49.366;2023-02-26T07:22:23;3.80;91.20
67196;DHT22;54122;53.538;49.366;2023-02-26T07:24:50;3.70;91.20
67196;DHT22;54122;53.538;49.366;2023-02-26T07:27:16;3.60;91.80
67196;DHT22;54122;53.538;49.366;2023-02-26T07:29:42;3.60;91.30
67196;DHT22;54122;53.538;49.366;2023-02-26T07:32:08;3.60;91.60
67196;DHT22;54122;53.538;49.366;2023-02-26T07:34:34;3.60;91.70
67196;DHT22;54122;53.538;49.366;2023-02-26T07:37:02;3.60;91.60
67196;DHT22;54122;53.538;49.366;2023-02-26T07:39:28;3.70;91.50
67196;DHT22;54122;53.538;49.366;2023-02-26T07:41:54;3.70;91.40
67196;DHT22;54122;53.538;49.366;2023-02-26T07:44:20;3.90;91.30
67196;DHT22;54122;53.538;49.366;2023-02-26T07:46:46;4.00;91.10
67196;DHT22;54122;53.538;49.366;2023-02-26T07:49:12;4.00;90.60
67196;DHT22;54122;53.538;49.366;2023-02-26T07:51:38;4.00;90.60
67196;DHT22;54122;53.538;49.366;2023-02-26T07:54:05;4.00;90.50
67196;DHT22;54122;53.538;49.366;2023-02-26T07:56:31;3.90;90.60
67196;DHT22;54122;53.538;49.366;2023-02-26T07:58:58;3.80;90.70
67196;DHT22;54122;53.538;49.366;2023-02-26T08:01:24;3.70;90.80
67196;DHT22;54122;53.538;49.366;2023-02-26T08:03:50;3.70;91.00
67196;DHT22;54122;53.538;49.366;2023-02-26T08:06:16;3.70;91.00
67196;DHT22;54122;53.538;49.366;2023-02-26T08:08:42;3.70;91.00
67196;DHT22;54122;53.538;49.366;2023-02-26T08:11:08;3.70;91.00
67196;DHT22;54122;53.538;49.366;2023-02-26T08:13:35;3.70;90.90
67196;DHT22;54122;53.538;49.366;2023-02-26T08:16:01;3.70;91.00
67196;DHT22;54122;53.538;49.366;2023-02-26T08:18:27;3.70;91.10
67196;DHT22;54122;53.538;49.366;2023-02-26T08:20:53;3.80;91.10
67196;DHT22;54122;53.538;49.366;2023-02-26T08:23:19;3.90;91.10
67196;DHT22;54122;53.538;49.366;2023-02-26T08:25:45;3.90;90.80
67196;DHT22;54122;53.538;49.366;2023-02-26T08:28:12;4.00;90.50
67196;DHT22;54122;53.538;49.366;2023-02-26T08:30:38;4.10;90.50
67196;DHT22;54122;53.538;49.366;2023-02-26T08:33:04;4.10;90.30
67196;DHT22;54122;53.538;49.366;2023-02-26T08:35:31;4.10;90.10
67196;DHT22;54122;53.538;49.366;2023-02-26T08:37:57;4.10;90.00
67196;DHT22;54122;53.538;49.366;2023-02-26T08:40:23;4.10;89.90
67196;DHT22;54122;53.538;49.366;2023-02-26T08:42:49;4.30;89.80
67196;DHT22;54122;53.538;49.366;2023-02-26T08:45:15;4.50;88.80
67196;DHT22;54122;53.538;49.366;2023-02-26T08:47:42;4.50;88.00
67196;DHT22;54122;53.538;49.366;2023-02-26T08:50:11;4.50;87.60
67196;DHT22;54122;53.538;49.366;2023-02-26T08:52:37;4.50;87.40
67196;DHT22;54122;53.538;49.366;2023-02-26T08:55:04;4.60;86.90
67196;DHT22;54122;53.538;49.366;2023-02-26T08:57:30;4.40;86.20
67196;DHT22;54122;53.538;49.366;2023-02-26T08:59:56;4.30;86.80
67196;DHT22;54122;53.538;49.366;2023-02-26T09:02:22;4.10;87.00
67196;DHT22;54122;53.538;49.366;2023-02-26T09:04:48;3.90;87.70
67196;DHT22;54122;53.538;49.366;2023-02-26T09:07:14;3.80;88.60
67196;DHT22;54122;53.538;49.366;2023-02-26T09:09:40;3.70;89.10
67196;DHT22;54122;53.538;49.366;2023-02-26T09:12:07;3.60;89.80
67196;DHT22;54122;53.538;49.366;2023-02-26T09:14:33;3.60;90.00
67196;DHT22;54122;53.538;49.366;2023-02-26T09:16:59;3.50;90.10
67196;DHT22;54122;53.538;49.366;2023-02-26T09:19:25;3.50;90.30
67196;DHT22;54122;53.538;49.366;2023-02-26T09:21:51;3.40;90.50
67196;DHT22;54122;53.538;49.366;2023-02-26T09:24:18;3.30;90.70
67196;DHT22;54122;53.538;49.366;2023-02-26T09:26:44;3.30;91.00
67196;DHT22;54122;53.538;49.366;2023-02-26T09:29:10;3.30;91.30
67196;DHT22;54122;53.538;49.366;2023-02-26T09:31:38;3.30;91.30
67196;DHT22;54122;53.538;49.366;2023-02-26T09:34:04;3.40;91.40
67196;DHT22;54122;53.538;49.366;2023-02-26T09:36:30;3.50;91.10
67196;DHT22;54122;53.538;49.366;2023-02-26T09:38:57;3.60;91.20
67196;DHT22;54122;53.538;49.366;2023-02-26T09:41:30;3.90;91.00
67196;DHT22;54122;53.538;49.366;2023-02-26T09:44:22;4.00;90.50
67196;DHT22;54122;53.538;49.366;2023-02-26T09:54:50;4.40;86.20
67196;DHT22;54122;53.538;49.366;2023-02-26T09:57:35;4.30;86.70
67196;DHT22;54122;53.538;49.366;2023-02-26T10:03:24;4.40;86.30
67196;DHT22;54122;53.538;49.366;2023-02-26T10:36:42;4.10;86.50
67196;DHT22;54122;53.538;49.366;2023-02-26T10:39:29;3.90;87.30
67196;DHT22;54122;53.538;49.366;2023-02-26T10:42:01;3.90;88.10
67196;DHT22;54122;53.538;49.366;2023-02-26T10:47:19;3.80;89.90
67196;DHT22;54122;53.538;49.366;2023-02-26T10:50:15;3.70;89.20
67196;DHT22;54122;53.538;49.366;2023-02-26T10:52:44;3.80;89.70
67196;DHT22;54122;53.538;49.366;2023-02-26T10:55:28;3.80;89.60
67196;DHT22;54122;53.538;49.366;2023-02-26T10:58:04;3.90;89.40
67196;DHT22;54122;53.538;49.366;2023-02-26T11:00:30;3.90;89.20
67196;DHT22;54122;53.538;49.366;2023-02-26T11:03:00;3.90;89.20
67196;DHT22;54122;53.538;49.366;2023-02-26T11:05:30;3.80;89.20
67196;DHT22;54122;53.538;49.366;2023-02-26T11:08:24;3.80;89.20
67196;DHT22;54122;53.538;49.366;2023-02-26T11:10:54;3.90;89.30
67196;DHT22;54122;53.538;49.366;2023-02-26T11:13:26;3.90;89.10
67196;DHT22;54122;53.538;49.366;2023-02-26T11:15:54;3.90;89.00
67196;DHT22;54122;53.538;49.366;2023-02-26T11:18:25;3.80;89.10
67196;DHT22;54122;53.538;49.366;2023-02-26T11:20:55;3.80;89.30
67196;DHT22;54122;53.538;49.366;2023-02-26T11:23:25;3.70;89.50
67196;DHT22;54122;53.538;49.366;2023-02-26T11:25:57;3.80;89.70
67196;DHT22;54122;53.538;49.366;2023-02-26T11:28:52;3.80;89.60
67196;DHT22;54122;53.538;49.366;2023-02-26T11:31:22;3.90;89.40
67196;DHT22;54122;53.538;49.366;2023-02-26T11:33:50;3.90;89.00
67196;DHT22;54122;53.538;49.366;2023-02-26T11:36:20;4.00;88.80
67196;DHT22;54122;53.538;49.366;2023-02-26T11:38:56;4.00;88.60
67196;DHT22;54122;53.538;49.366;2023-02-26T11:41:24;4.00;88.50
67196;DHT22;54122;53.538;49.366;2023-02-26T11:44:00;4.00;88.50
67196;DHT22;54122;53.538;49.366;2023-02-26T11:46:27;4.00;88.50
67196;DHT22;54122;53.538;49.366;2023-02-26T11:48:55;4.00;88.50
67196;DHT22;54122;53.538;49.366;2023-02-26T11:51:27;4.00;88.60
67196;DHT22;54122;53.538;49.366;2023-02-26T11:53:55;3.90;88.50
67196;DHT22;54122;53.538;49.366;2023-02-26T11:56:38;3.90;88.70
67196;DHT22;54122;53.538;49.366;2023-02-26T11:59:22;3.90;89.10
67196;DHT22;54122;53.538;49.366;2023-02-26T12:01:50;3.90;89.30
67196;DHT22;54122;53.538;49.366;2023-02-26T12:04:24;3.80;89.30
67196;DHT22;54122;53.538;49.366;2023-02-26T12:06:54;3.80;89.40
67196;DHT22;54122;53.538;49.366;2023-02-26T12:09:21;3.80;89.80
67196;DHT22;54122;53.538;49.366;2023-02-26T12:14:46;3.70;90.00
67196;DHT22;54122;53.538;49.366;2023-02-26T12:26:24;3.80;90.20
67196;DHT22;54122;53.538;49.366;2023-02-26T12:29:04;3.80;90.30
67196;DHT22;54122;53.538;49.366;2023-02-26T12:39:58;3.80;90.50
67196;DHT22;54122;53.538;49.366;2023-02-26T12:45:28;3.90;90.50
67196;DHT22;54122;53.538;49.366;2023-02-26T12:56:03;3.90;90.20
67196;DHT22;54122;53.538;49.366;2023-02-26T12:58:48;4.00;90.30
67196;DHT22;54122;53.538;49.366;2023-02-26T13:01:36;3.90;90.30
67196;DHT22;54122;53.538;49.366;2023-02-26T13:07:09;3.80;90.50
67196;DHT22;54122;53.538;49.366;2023-02-26T13:10:15;3.80;90.70
67196;DHT22;54122;53.538;49.366;2023-02-26T13:20:24;3.80;91.30
67196;DHT22;54122;53.538;49.366;2023-02-26T13:23:02;3.80;91.30
67196;DHT22;54122;53.538;49.366;2023-02-26T13:25:53;3.80;91.20
67196;DHT22;54122;53.538;49.366;2023-02-26T13:28:40;3.80;91.20
67196;DHT22;54122;53.538;49.366;2023-02-26T13:33:49;3.80;91.20
67196;DHT22;54122;53.538;49.366;2023-02-26T13:36:18;3.80;91.20
67196;DHT22;54122;53.538;49.366;2023-02-26T13:41:32;3.80;91.10
67196;DHT22;54122;53.538;49.366;2023-02-26T13:46:54;3.80;90.90
67196;DHT22;54122;53.538;49.366;2023-02-26T13:51:58;3.90;90.60
67196;DHT22;54122;53.538;49.366;2023-02-26T13:54:33;3.80;90.40
67196;DHT22;54122;53.538;49.366;2023-02-26T13:57:24;3.90;90.20
67196;DHT22;54122;53.538;49.366;2023-02-26T14:02:47;3.90;89.70
67196;DHT22;54122;53.538;49.366;2023-02-26T14:05:35;3.80;90.00
67196;DHT22;54122;53.538;49.366;2023-02-26T14:08:15;3.60;90.50
67196;DHT22;54122;53.538;49.366;2023-02-26T14:19:43;3.30;92.70
67196;DHT22;54122;53.538;49.366;2023-02-26T14:22:17;3.30;93.00
67196;DHT22;54122;53.538;49.366;2023-02-26T14:24:52;3.20;93.20
67196;DHT22;54122;53.538;49.366;2023-02-26T14:35:32;3.10;94.60
67196;DHT22;54122;53.538;49.366;2023-02-26T14:38:35;3.00;95.00
67196;DHT22;54122;53.538;49.366;2023-02-26T14:41:24;3.00;95.30
67196;DHT22;54122;53.538;49.366;2023-02-26T14:44:01;3.00;95.60
67196;DHT22;54122;53.538;49.366;2023-02-26T14:46:29;3.00;95.90
67196;DHT22;54122;53.538;49.366;2023-02-26T14:48:56;3.00;96.10
67196;DHT22;54122;53.538;49.366;2023-02-26T14:52:50;3.00;96.20
67196;DHT22;54122;53.538;49.366;2023-02-26T14:55:15;3.00;96.30
67196;DHT22;54122;53.538;49.366;2023-02-26T15:00:58;3.00;96.70
67196;DHT22;54122;53.538;49.366;2023-02-26T15:14:59;2.90;97.40
67196;DHT22;54122;53.538;49.366;2023-02-26T15:17:46;2.90;97.50
67196;DHT22;54122;53.538;49.366;2023-02-26T15:25:47;3.00;98.20
67196;DHT22;54122;53.538;49.366;2023-02-26T15:28:35;3.00;97.90
67196;DHT22;54122;53.538;49.366;2023-02-26T15:31:04;3.00;97.90
67196;DHT22;54122;53.538;49.366;2023-02-26T15:33:31;3.00;97.90
67196;DHT22;54122;53.538;49.366;2023-02-26T15:35:59;3.00;98.10
67196;DHT22;54122;53.538;49.366;2023-02-26T15:38:26;3.00;97.90
67196;DHT22;54122;53.538;49.366;2023-02-26T15:40:58;3.00;98.00
67196;DHT22;54122;53.538;49.366;2023-02-26T15:43:27;3.00;97.90
67196;DHT22;54122;53.538;49.366;2023-02-26T15:45:55;3.00;98.00
67196;DHT22;54122;53.538;49.366;2023-02-26T15:48:29;3.00;98.00
67196;DHT22;54122;53.538;49.366;2023-02-26T15:51:02;3.00;98.10
67196;DHT22;54122;53.538;49.366;2023-02-26T15:53:43;3.00;98.20
67196;DHT22;54122;53.538;49.366;2023-02-26T15:56:14;3.00;98.20
67196;DHT22;54122;53.538;49.366;2023-02-26T15:59:17;3.00;98.30
67196;DHT22;54122;53.538;49.366;2023-02-26T16:01:44;3.00;98.40
67196;DHT22;54122;53.538;49.366;2023-02-26T16:04:17;3.00;98.60
67196;DHT22;54122;53.538;49.366;2023-02-26T16:06:51;3.00;98.70
67196;DHT22;54122;53.538;49.366;2023-02-26T16:09:34;3.00;98.80
67196;DHT22;54122;53.538;49.366;2023-02-26T16:12:31;2.90;98.80
67196;DHT22;54122;53.538;49.366;2023-02-26T16:14:58;2.90;99.00
67196;DHT22;54122;53.538;49.366;2023-02-26T16:17:30;2.90;99.20
67196;DHT22;54122;53.538;49.366;2023-02-26T16:19:59;2.90;99.20
67196;DHT22;54122;53.538;49.366;2023-02-26T16:22:36;2.90;99.20
67196;DHT22;54122;53.538;49.366;2023-02-26T16:25:14;2.90;99.30
67196;DHT22;54122;53.538;49.366;2023-02-26T16:27:41;2.80;99.30
67196;DHT22;54122;53.538;49.366;2023-02-26T16:30:16;2.80;99.50
67196;DHT22;54122;53.538;49.366;2023-02-26T16:32:43;2.80;99.60
67196;DHT22;54122;53.538;49.366;2023-02-26T16:35:16;2.80;99.60
67196;DHT22;54122;53.538;49.366;2023-02-26T16:37:45;2.80;99.60
67196;DHT22;54122;53.538;49.366;2023-02-26T16:45:44;2.60;99.60
67196;DHT22;54122;53.538;49.366;2023-02-26T16:48:35;2.50;99.60
67196;DHT22;54122;53.538;49.366;2023-02-26T16:51:09;2.50;99.90
67196;DHT22;54122;53.538;49.366;2023-02-26T16:53:43;2.40;99.90
67196;DHT22;54122;53.538;49.366;2023-02-26T16:56:16;2.40;99.90
67196;DHT22;54122;53.538;49.366;2023-02-26T16:58:53;2.40;99.90
67196;DHT22;54122;53.538;49.366;2023-02-26T17:01:23;2.40;99.90
67196;DHT22;54122;53.538;49.366;2023-02-26T17:03:56;2.30;99.90
67196;DHT22;54122;53.538;49.366;2023-02-26T17:06:27;2.30;99.90
67196;DHT22;54122;53.538;49.366;2023-02-26T17:08:58;2.30;99.90
67196;DHT22;54122;53.538;49.366;2023-02-26T17:11:34;2.30;99.90
67196;DHT22;54122;53.538;49.366;2023-02-26T17:14:15;2.30;99.90
67196;DHT22;54122;53.538;49.366;2023-02-26T17:16:47;2.20;99.90
67196;DHT22;54122;53.538;49.366;2023-02-26T17:19:14;2.20;99.90
67196;DHT22;54122;53.538;49.366;2023-02-26T17:21:49;2.20;99.90
67196;DHT22;54122;53.538;49.366;2023-02-26T17:24:24;2.10;99.90
67196;DHT22;54122;53.538;49.366;2023-02-26T17:26:51;2.10;99.90
67196;DHT22;54122;53.538;49.366;2023-02-26T17:29:26;2.20;99.90
67196;DHT22;54122;53.538;49.366;2023-02-26T17:31:54;2.20;99.90
67196;DHT22;54122;53.538;49.366;2023-02-26T17:34:20;2.20;99.90
67196;DHT22;54122;53.538;49.366;2023-02-26T17:36:48;2.20;99.90
67196;DHT22;54122;53.538;49.366;2023-02-26T17:39:14;2.20;99.90
67196;DHT22;54122;53.538;49.366;2023-02-26T17:41:44;2.20;99.90
67196;DHT22;54122;53.538;49.366;2023-02-26T17:44:11;2.20;99.90
67196;DHT22;54122;53.538;49.366;2023-02-26T17:46:37;2.20;99.90
67196;DHT22;54122;53.538;49.366;2023-02-26T17:49:03;2.30;99.90
67196;DHT22;54122;53.538;49.366;2023-02-26T17:51:29;2.30;99.90
67196;DHT22;54122;53.538;49.366;2023-02-26T17:53:55;2.30;99.90
67196;DHT22;54122;53.538;49.366;2023-02-26T17:56:27;2.30;99.90
67196;DHT22;54122;53.538;49.366;2023-02-26T17:58:55;2.40;99.90
67196;DHT22;54122;53.538;49.366;2023-02-26T18:01:22;2.40;99.90
67196;DHT22;54122;53.538;49.366;2023-02-26T18:03:49;2.40;99.90
67196;DHT22;54122;53.538;49.366;2023-02-26T18:06:16;2.50;99.90
67196;DHT22;54122;53.538;49.366;2023-02-26T18:08:42;2.50;99.90
67196;DHT22;54122;53.538;49.366;2023-02-26T18:11:11;2.50;99.90
67196;DHT22;54122;53.538;49.366;2023-02-26T18:13:38;2.50;99.90
67196;DHT22;54122;53.538;49.366;2023-02-26T18:16:05;2.50;99.90
67196;DHT22;54122;53.538;49.366;2023-02-26T18:18:32;2.50;99.90
67196;DHT22;54122;53.538;49.366;2023-02-26T18:20:58;2.50;99.90
67196;DHT22;54122;53.538;49.366;2023-02-26T18:23:25;2.60;99.90
67196;DHT22;54122;53.538;49.366;2023-02-26T18:25:53;2.60;99.90
67196;DHT22;54122;53.538;49.366;2023-02-26T18:28:24;2.60;99.90
67196;DHT22;54122;53.538;49.366;2023-02-26T18:30:51;2.60;99.90
67196;DHT22;54122;53.538;49.366;2023-02-26T18:33:18;2.60;99.90
67196;DHT22;54122;53.538;49.366;2023-02-26T18:35:49;2.70;99.90
67196;DHT22;54122;53.538;49.366;2023-02-26T18:38:22;2.70;99.90
67196;DHT22;54122;53.538;49.366;2023-02-26T18:40:49;2.70;99.90
67196;DHT22;54122;53.538;49.366;2023-02-26T18:43:17;2.70;99.90
67196;DHT22;54122;53.538;49.366;2023-02-26T18:45:47;2.70;99.90
67196;DHT22;54122;53.538;49.366;2023-02-26T18:48:15;2.70;99.90
67196;DHT22;54122;53.538;49.366;2023-02-26T18:50:43;2.80;99.90
67196;DHT22;54122;53.538;49.366;2023-02-26T18:53:10;2.80;99.90